Haciendas de Cabo Rojo, Puerto Rico
Current Conditions -  °F | °C
As of 10:50 AM on Wednesday 26 Nov 2014 (Local Time) from TJBQ Reporting Station
Broken Clouds Broken Clouds  
Wind Chill: 82°   Ceiling: 7000
Heat Index: 87°   Visibility: 10mi
Dew Point: 72°   Wind: 13mph
Humidity: 70%   Direction: 100°E
Pressure: 30.06"   Gusts: 17mph
Location:  18.0849°N, 67.1633°W
Report Text: TJBQ 261450Z 10011G15KT 10SM BKN070 28/22 A3006 RMK RWY08 ATIS J
Loading
Personal Weather Stations






























Interactive Weather Map New forecast layout! Learn more

10-Day Weather Forecast

Advertisements
Track Severe Weather on mobile